KORL/ORL METAR and TAF weather

Enter ICAO airport designator
Station Type Date Time Source
KORL METAR 2020/11/25 22:53 UTC NOAA

KORL 252253Z 11009KT 10SM BKN065 25/17 A3018 RMK AO2 SLP222 T02500167


Station Type Date Time Source
KORL Decoded METAR 2020/11/25 22:53 UTC NOAA

ORLANDO EXECUTIVE AIRPORT, FL, United States (KORL) 28-33N 081-20W 37M
Nov 25, 2020 - 05:53 PM EST / 2020.11.25 2253 UTC
Wind: from the ESE (110 degrees) at 10 MPH (9 KT):0
Visibility: 10 mile(s):0
Sky conditions: mostly cloudy
Temperature: 77.0 F (25.0 C)
Dew Point: 62.1 F (16.7 C)
Relative Humidity: 59%
Pressure (altimeter): 30.18 in. Hg (1022 hPa)
ob: KORL 252253Z 11009KT 10SM BKN065 25/17 A3018 RMK AO2 SLP222 T02500167
cycle: 23

Station Type Date Time Source
KORL TAF UTC NOAA

Error!

Example: see airport list